sensor_id;sensor_type;location;lat;lon;timestamp;P1;durP1;ratioP1;P2;durP2;ratioP2
29712;SDS011;16623;53.632;10.016;2023-03-12T00:00:35;17.23;;;5.57;;
29712;SDS011;16623;53.632;10.016;2023-03-12T00:03:02;8.70;;;5.57;;
29712;SDS011;16623;53.632;10.016;2023-03-12T00:05:28;12.38;;;5.20;;
29712;SDS011;16623;53.632;10.016;2023-03-12T00:07:53;12.57;;;5.60;;
29712;SDS011;16623;53.632;10.016;2023-03-12T00:10:23;10.23;;;5.13;;
29712;SDS011;16623;53.632;10.016;2023-03-12T00:12:51;10.32;;;4.72;;
29712;SDS011;16623;53.632;10.016;2023-03-12T00:15:17;10.38;;;5.35;;
29712;SDS011;16623;53.632;10.016;2023-03-12T00:17:42;15.68;;;5.78;;
29712;SDS011;16623;53.632;10.016;2023-03-12T00:20:08;8.15;;;5.30;;
29712;SDS011;16623;53.632;10.016;2023-03-12T00:22:34;13.57;;;6.00;;
29712;SDS011;16623;53.632;10.016;2023-03-12T00:25:00;9.25;;;4.88;;
29712;SDS011;16623;53.632;10.016;2023-03-12T00:29:54;10.02;;;5.47;;
29712;SDS011;16623;53.632;10.016;2023-03-12T00:32:20;10.95;;;6.00;;
29712;SDS011;16623;53.632;10.016;2023-03-12T00:34:49;12.55;;;5.45;;
29712;SDS011;16623;53.632;10.016;2023-03-12T00:37:16;14.38;;;6.30;;
29712;SDS011;16623;53.632;10.016;2023-03-12T00:39:41;10.15;;;6.28;;
29712;SDS011;16623;53.632;10.016;2023-03-12T00:42:07;11.35;;;5.65;;
29712;SDS011;16623;53.632;10.016;2023-03-12T00:44:32;15.38;;;7.63;;
29712;SDS011;16623;53.632;10.016;2023-03-12T00:46:58;13.43;;;7.00;;
29712;SDS011;16623;53.632;10.016;2023-03-12T00:49:24;20.48;;;8.52;;
29712;SDS011;16623;53.632;10.016;2023-03-12T00:51:49;15.23;;;7.93;;
29712;SDS011;16623;53.632;10.016;2023-03-12T00:54:15;16.67;;;7.53;;
29712;SDS011;16623;53.632;10.016;2023-03-12T00:56:40;10.95;;;7.55;;
29712;SDS011;16623;53.632;10.016;2023-03-12T00:59:06;8.68;;;6.60;;
29712;SDS011;16623;53.632;10.016;2023-03-12T01:01:31;10.75;;;7.05;;
29712;SDS011;16623;53.632;10.016;2023-03-12T01:03:57;18.17;;;7.07;;
29712;SDS011;16623;53.632;10.016;2023-03-12T01:06:24;15.02;;;7.85;;
29712;SDS011;16623;53.632;10.016;2023-03-12T01:08:49;13.95;;;6.88;;
29712;SDS011;16623;53.632;10.016;2023-03-12T01:11:15;9.68;;;7.10;;
29712;SDS011;16623;53.632;10.016;2023-03-12T01:13:42;12.75;;;7.25;;
29712;SDS011;16623;53.632;10.016;2023-03-12T01:16:08;18.83;;;7.90;;
29712;SDS011;16623;53.632;10.016;2023-03-12T01:18:34;14.88;;;7.97;;
29712;SDS011;16623;53.632;10.016;2023-03-12T01:21:00;16.65;;;7.57;;
29712;SDS011;16623;53.632;10.016;2023-03-12T01:23:26;18.58;;;8.23;;
29712;SDS011;16623;53.632;10.016;2023-03-12T01:25:51;15.50;;;7.80;;
29712;SDS011;16623;53.632;10.016;2023-03-12T01:28:19;12.95;;;7.10;;
29712;SDS011;16623;53.632;10.016;2023-03-12T01:30:48;15.45;;;7.72;;
29712;SDS011;16623;53.632;10.016;2023-03-12T01:33:14;12.57;;;6.60;;
29712;SDS011;16623;53.632;10.016;2023-03-12T01:35:40;11.38;;;6.88;;
29712;SDS011;16623;53.632;10.016;2023-03-12T01:38:07;13.73;;;6.38;;
29712;SDS011;16623;53.632;10.016;2023-03-12T01:40:36;9.75;;;6.35;;
29712;SDS011;16623;53.632;10.016;2023-03-12T01:49:08;16.15;;;8.27;;
29712;SDS011;16623;53.632;10.016;2023-03-12T01:51:56;9.95;;;7.22;;
29712;SDS011;16623;53.632;10.016;2023-03-12T01:59:34;15.25;;;8.18;;
29712;SDS011;16623;53.632;10.016;2023-03-12T02:02:05;18.42;;;8.95;;
29712;SDS011;16623;53.632;10.016;2023-03-12T02:04:33;13.40;;;8.85;;
29712;SDS011;16623;53.632;10.016;2023-03-12T02:09:34;15.45;;;9.32;;
29712;SDS011;16623;53.632;10.016;2023-03-12T02:12:02;18.73;;;10.35;;
29712;SDS011;16623;53.632;10.016;2023-03-12T02:14:27;26.13;;;10.68;;
29712;SDS011;16623;53.632;10.016;2023-03-12T02:16:53;16.45;;;10.50;;
29712;SDS011;16623;53.632;10.016;2023-03-12T02:19:26;18.52;;;9.90;;
29712;SDS011;16623;53.632;10.016;2023-03-12T02:22:02;17.92;;;10.68;;
29712;SDS011;16623;53.632;10.016;2023-03-12T02:27:12;19.27;;;12.20;;
29712;SDS011;16623;53.632;10.016;2023-03-12T02:29:38;17.98;;;10.82;;
29712;SDS011;16623;53.632;10.016;2023-03-12T02:32:06;29.13;;;12.70;;
29712;SDS011;16623;53.632;10.016;2023-03-12T02:34:33;28.75;;;12.73;;
29712;SDS011;16623;53.632;10.016;2023-03-12T02:36:59;18.80;;;13.32;;
29712;SDS011;16623;53.632;10.016;2023-03-12T02:39:25;19.13;;;11.93;;
29712;SDS011;16623;53.632;10.016;2023-03-12T02:41:53;26.33;;;12.20;;
29712;SDS011;16623;53.632;10.016;2023-03-12T02:44:22;17.77;;;11.63;;
29712;SDS011;16623;53.632;10.016;2023-03-12T02:46:50;25.02;;;13.02;;
29712;SDS011;16623;53.632;10.016;2023-03-12T02:49:19;26.55;;;13.35;;
29712;SDS011;16623;53.632;10.016;2023-03-12T02:51:45;15.05;;;10.40;;
29712;SDS011;16623;53.632;10.016;2023-03-12T02:54:12;19.92;;;10.65;;
29712;SDS011;16623;53.632;10.016;2023-03-12T02:56:39;21.10;;;10.57;;
29712;SDS011;16623;53.632;10.016;2023-03-12T02:59:07;19.20;;;10.15;;
29712;SDS011;16623;53.632;10.016;2023-03-12T03:01:33;18.00;;;10.88;;
29712;SDS011;16623;53.632;10.016;2023-03-12T03:04:00;14.45;;;10.30;;
29712;SDS011;16623;53.632;10.016;2023-03-12T03:06:26;20.92;;;11.32;;
29712;SDS011;16623;53.632;10.016;2023-03-12T03:08:52;19.48;;;10.88;;
29712;SDS011;16623;53.632;10.016;2023-03-12T03:11:18;25.95;;;12.23;;
29712;SDS011;16623;53.632;10.016;2023-03-12T03:13:48;16.15;;;10.40;;
29712;SDS011;16623;53.632;10.016;2023-03-12T03:16:14;21.08;;;11.80;;
29712;SDS011;16623;53.632;10.016;2023-03-12T03:18:39;18.45;;;11.23;;
29712;SDS011;16623;53.632;10.016;2023-03-12T03:21:06;24.17;;;10.88;;
29712;SDS011;16623;53.632;10.016;2023-03-12T03:23:33;17.05;;;10.23;;
29712;SDS011;16623;53.632;10.016;2023-03-12T03:25:59;18.25;;;10.32;;
29712;SDS011;16623;53.632;10.016;2023-03-12T03:28:26;15.32;;;10.07;;
29712;SDS011;16623;53.632;10.016;2023-03-12T03:30:54;14.60;;;10.02;;
29712;SDS011;16623;53.632;10.016;2023-03-12T03:33:25;21.58;;;10.45;;
29712;SDS011;16623;53.632;10.016;2023-03-12T03:35:55;16.90;;;10.95;;
29712;SDS011;16623;53.632;10.016;2023-03-12T03:38:23;15.77;;;9.98;;
29712;SDS011;16623;53.632;10.016;2023-03-12T03:40:53;16.35;;;10.43;;
29712;SDS011;16623;53.632;10.016;2023-03-12T03:43:19;19.15;;;11.18;;
29712;SDS011;16623;53.632;10.016;2023-03-12T03:45:46;19.38;;;11.00;;
29712;SDS011;16623;53.632;10.016;2023-03-12T03:48:12;24.00;;;12.20;;
29712;SDS011;16623;53.632;10.016;2023-03-12T03:50:38;15.80;;;10.40;;
29712;SDS011;16623;53.632;10.016;2023-03-12T03:53:05;17.30;;;10.48;;
29712;SDS011;16623;53.632;10.016;2023-03-12T03:55:34;20.90;;;11.55;;
29712;SDS011;16623;53.632;10.016;2023-03-12T03:58:01;15.60;;;11.23;;
29712;SDS011;16623;53.632;10.016;2023-03-12T04:00:27;17.63;;;11.43;;
29712;SDS011;16623;53.632;10.016;2023-03-12T04:02:52;17.33;;;11.45;;
29712;SDS011;16623;53.632;10.016;2023-03-12T04:05:19;22.95;;;11.48;;
29712;SDS011;16623;53.632;10.016;2023-03-12T04:07:45;18.75;;;11.40;;
29712;SDS011;16623;53.632;10.016;2023-03-12T04:10:11;29.83;;;13.00;;
29712;SDS011;16623;53.632;10.016;2023-03-12T04:12:36;23.60;;;11.73;;
29712;SDS011;16623;53.632;10.016;2023-03-12T04:15:02;20.50;;;12.25;;
29712;SDS011;16623;53.632;10.016;2023-03-12T04:17:28;25.88;;;11.05;;
29712;SDS011;16623;53.632;10.016;2023-03-12T04:19:54;23.77;;;10.95;;
29712;SDS011;16623;53.632;10.016;2023-03-12T04:22:20;14.75;;;9.57;;
29712;SDS011;16623;53.632;10.016;2023-03-12T04:24:46;23.67;;;10.23;;
29712;SDS011;16623;53.632;10.016;2023-03-12T04:27:11;20.88;;;10.25;;
29712;SDS011;16623;53.632;10.016;2023-03-12T04:29:37;16.83;;;9.93;;
29712;SDS011;16623;53.632;10.016;2023-03-12T04:32:04;19.67;;;10.20;;
29712;SDS011;16623;53.632;10.016;2023-03-12T04:34:30;19.83;;;11.07;;
29712;SDS011;16623;53.632;10.016;2023-03-12T04:36:56;21.35;;;10.55;;
29712;SDS011;16623;53.632;10.016;2023-03-12T04:39:22;14.13;;;9.52;;
29712;SDS011;16623;53.632;10.016;2023-03-12T04:41:47;19.25;;;10.60;;
29712;SDS011;16623;53.632;10.016;2023-03-12T04:44:13;12.23;;;9.18;;
29712;SDS011;16623;53.632;10.016;2023-03-12T04:46:38;18.77;;;9.98;;
29712;SDS011;16623;53.632;10.016;2023-03-12T04:49:04;21.05;;;11.25;;
29712;SDS011;16623;53.632;10.016;2023-03-12T04:51:29;16.63;;;9.85;;
29712;SDS011;16623;53.632;10.016;2023-03-12T04:53:56;16.23;;;8.48;;
29712;SDS011;16623;53.632;10.016;2023-03-12T04:56:22;14.75;;;9.63;;
29712;SDS011;16623;53.632;10.016;2023-03-12T04:58:49;15.50;;;10.15;;
29712;SDS011;16623;53.632;10.016;2023-03-12T05:01:34;15.50;;;10.25;;
29712;SDS011;16623;53.632;10.016;2023-03-12T05:04:01;20.48;;;10.10;;
29712;SDS011;16623;53.632;10.016;2023-03-12T05:06:27;13.98;;;10.13;;
29712;SDS011;16623;53.632;10.016;2023-03-12T05:08:52;16.73;;;9.55;;
29712;SDS011;16623;53.632;10.016;2023-03-12T05:11:18;17.60;;;10.40;;
29712;SDS011;16623;53.632;10.016;2023-03-12T05:13:45;13.20;;;9.77;;
29712;SDS011;16623;53.632;10.016;2023-03-12T05:16:11;20.17;;;10.77;;
29712;SDS011;16623;53.632;10.016;2023-03-12T05:18:37;20.77;;;10.98;;
29712;SDS011;16623;53.632;10.016;2023-03-12T05:21:05;20.25;;;9.95;;
29712;SDS011;16623;53.632;10.016;2023-03-12T05:23:36;25.35;;;9.98;;
29712;SDS011;16623;53.632;10.016;2023-03-12T05:26:03;15.68;;;9.90;;
29712;SDS011;16623;53.632;10.016;2023-03-12T05:28:39;16.27;;;9.60;;
29712;SDS011;16623;53.632;10.016;2023-03-12T05:31:07;14.80;;;10.02;;
29712;SDS011;16623;53.632;10.016;2023-03-12T05:33:34;18.27;;;11.20;;
29712;SDS011;16623;53.632;10.016;2023-03-12T05:36:00;19.95;;;10.50;;
29712;SDS011;16623;53.632;10.016;2023-03-12T05:38:26;18.10;;;9.98;;
29712;SDS011;16623;53.632;10.016;2023-03-12T05:40:52;20.95;;;11.68;;
29712;SDS011;16623;53.632;10.016;2023-03-12T05:43:19;22.60;;;10.50;;
29712;SDS011;16623;53.632;10.016;2023-03-12T05:45:45;19.80;;;10.10;;
29712;SDS011;16623;53.632;10.016;2023-03-12T05:48:11;14.68;;;10.05;;
29712;SDS011;16623;53.632;10.016;2023-03-12T05:50:36;17.45;;;10.40;;
29712;SDS011;16623;53.632;10.016;2023-03-12T05:53:02;19.40;;;10.50;;
29712;SDS011;16623;53.632;10.016;2023-03-12T05:55:27;23.65;;;11.18;;
29712;SDS011;16623;53.632;10.016;2023-03-12T05:57:53;19.88;;;9.88;;
29712;SDS011;16623;53.632;10.016;2023-03-12T06:00:19;19.35;;;10.68;;
29712;SDS011;16623;53.632;10.016;2023-03-12T06:02:45;17.90;;;9.55;;
29712;SDS011;16623;53.632;10.016;2023-03-12T06:05:10;18.38;;;9.98;;
29712;SDS011;16623;53.632;10.016;2023-03-12T06:07:36;15.95;;;10.52;;
29712;SDS011;16623;53.632;10.016;2023-03-12T06:10:02;20.02;;;10.32;;
29712;SDS011;16623;53.632;10.016;2023-03-12T06:12:27;18.45;;;10.45;;
29712;SDS011;16623;53.632;10.016;2023-03-12T06:14:53;13.52;;;9.82;;
29712;SDS011;16623;53.632;10.016;2023-03-12T06:17:18;22.90;;;10.05;;
29712;SDS011;16623;53.632;10.016;2023-03-12T06:19:44;21.27;;;9.50;;
29712;SDS011;16623;53.632;10.016;2023-03-12T06:22:10;15.65;;;10.38;;
29712;SDS011;16623;53.632;10.016;2023-03-12T06:24:35;15.95;;;9.55;;
29712;SDS011;16623;53.632;10.016;2023-03-12T06:27:01;19.52;;;10.55;;
29712;SDS011;16623;53.632;10.016;2023-03-12T06:29:26;20.17;;;10.85;;
29712;SDS011;16623;53.632;10.016;2023-03-12T06:31:52;20.77;;;10.77;;
29712;SDS011;16623;53.632;10.016;2023-03-12T06:34:17;17.92;;;10.50;;
29712;SDS011;16623;53.632;10.016;2023-03-12T06:36:43;18.73;;;10.38;;
29712;SDS011;16623;53.632;10.016;2023-03-12T06:39:08;22.98;;;11.80;;
29712;SDS011;16623;53.632;10.016;2023-03-12T06:41:34;25.92;;;12.38;;
29712;SDS011;16623;53.632;10.016;2023-03-12T06:44:00;22.35;;;11.45;;
29712;SDS011;16623;53.632;10.016;2023-03-12T06:46:29;20.02;;;11.52;;
29712;SDS011;16623;53.632;10.016;2023-03-12T06:48:55;15.93;;;10.75;;
29712;SDS011;16623;53.632;10.016;2023-03-12T06:51:21;21.42;;;11.13;;
29712;SDS011;16623;53.632;10.016;2023-03-12T06:53:46;17.95;;;11.25;;
29712;SDS011;16623;53.632;10.016;2023-03-12T06:56:12;22.42;;;10.85;;
29712;SDS011;16623;53.632;10.016;2023-03-12T06:58:39;20.42;;;11.00;;
29712;SDS011;16623;53.632;10.016;2023-03-12T07:01:05;18.17;;;10.45;;
29712;SDS011;16623;53.632;10.016;2023-03-12T07:03:31;20.73;;;10.88;;
29712;SDS011;16623;53.632;10.016;2023-03-12T07:05:57;19.30;;;10.88;;
29712;SDS011;16623;53.632;10.016;2023-03-12T07:08:23;15.60;;;10.82;;
29712;SDS011;16623;53.632;10.016;2023-03-12T07:10:49;20.13;;;11.02;;
29712;SDS011;16623;53.632;10.016;2023-03-12T07:13:15;15.68;;;10.20;;
29712;SDS011;16623;53.632;10.016;2023-03-12T07:15:40;15.65;;;10.00;;
29712;SDS011;16623;53.632;10.016;2023-03-12T07:18:07;16.45;;;9.82;;
29712;SDS011;16623;53.632;10.016;2023-03-12T07:20:40;17.88;;;9.95;;
29712;SDS011;16623;53.632;10.016;2023-03-12T07:23:07;17.33;;;9.85;;
29712;SDS011;16623;53.632;10.016;2023-03-12T07:25:37;17.58;;;9.60;;
29712;SDS011;16623;53.632;10.016;2023-03-12T07:28:05;19.60;;;9.35;;
29712;SDS011;16623;53.632;10.016;2023-03-12T07:30:31;12.88;;;9.15;;
29712;SDS011;16623;53.632;10.016;2023-03-12T07:33:00;20.00;;;9.32;;
29712;SDS011;16623;53.632;10.016;2023-03-12T07:35:26;13.45;;;8.57;;
29712;SDS011;16623;53.632;10.016;2023-03-12T07:37:52;13.60;;;8.07;;
29712;SDS011;16623;53.632;10.016;2023-03-12T07:40:18;14.70;;;8.95;;
29712;SDS011;16623;53.632;10.016;2023-03-12T07:42:43;15.48;;;9.52;;
29712;SDS011;16623;53.632;10.016;2023-03-12T07:45:09;15.35;;;8.40;;
29712;SDS011;16623;53.632;10.016;2023-03-12T07:47:35;16.30;;;7.75;;
29712;SDS011;16623;53.632;10.016;2023-03-12T07:50:00;11.02;;;7.55;;
29712;SDS011;16623;53.632;10.016;2023-03-12T07:52:26;13.25;;;7.38;;
29712;SDS011;16623;53.632;10.016;2023-03-12T07:54:52;18.77;;;8.15;;
29712;SDS011;16623;53.632;10.016;2023-03-12T07:57:20;17.98;;;8.32;;
29712;SDS011;16623;53.632;10.016;2023-03-12T07:59:46;13.43;;;6.47;;
29712;SDS011;16623;53.632;10.016;2023-03-12T08:02:11;14.02;;;7.65;;
29712;SDS011;16623;53.632;10.016;2023-03-12T08:04:37;11.85;;;7.32;;
29712;SDS011;16623;53.632;10.016;2023-03-12T08:07:03;14.32;;;7.82;;
29712;SDS011;16623;53.632;10.016;2023-03-12T08:09:29;11.93;;;6.93;;
29712;SDS011;16623;53.632;10.016;2023-03-12T08:11:54;9.98;;;6.07;;
29712;SDS011;16623;53.632;10.016;2023-03-12T08:14:19;13.98;;;6.53;;
29712;SDS011;16623;53.632;10.016;2023-03-12T08:16:45;11.20;;;6.10;;
29712;SDS011;16623;53.632;10.016;2023-03-12T08:19:10;9.65;;;5.72;;
29712;SDS011;16623;53.632;10.016;2023-03-12T08:21:36;10.20;;;5.78;;
29712;SDS011;16623;53.632;10.016;2023-03-12T08:24:02;15.45;;;7.65;;
29712;SDS011;16623;53.632;10.016;2023-03-12T08:26:27;7.75;;;5.72;;
29712;SDS011;16623;53.632;10.016;2023-03-12T08:28:53;9.40;;;5.55;;
29712;SDS011;16623;53.632;10.016;2023-03-12T08:31:18;12.30;;;5.47;;
29712;SDS011;16623;53.632;10.016;2023-03-12T08:33:44;13.02;;;5.82;;
29712;SDS011;16623;53.632;10.016;2023-03-12T08:36:11;8.63;;;5.43;;
29712;SDS011;16623;53.632;10.016;2023-03-12T08:38:36;12.80;;;7.60;;
29712;SDS011;16623;53.632;10.016;2023-03-12T08:41:02;12.75;;;5.22;;
29712;SDS011;16623;53.632;10.016;2023-03-12T08:43:27;10.23;;;6.13;;
29712;SDS011;16623;53.632;10.016;2023-03-12T08:45:57;7.60;;;5.05;;
29712;SDS011;16623;53.632;10.016;2023-03-12T08:48:23;9.27;;;5.43;;
29712;SDS011;16623;53.632;10.016;2023-03-12T08:50:49;8.63;;;4.85;;
29712;SDS011;16623;53.632;10.016;2023-03-12T08:53:15;6.50;;;3.60;;
29712;SDS011;16623;53.632;10.016;2023-03-12T08:55:42;17.08;;;6.07;;
29712;SDS011;16623;53.632;10.016;2023-03-12T08:58:07;12.25;;;4.68;;
29712;SDS011;16623;53.632;10.016;2023-03-12T09:00:33;7.70;;;4.00;;
29712;SDS011;16623;53.632;10.016;2023-03-12T09:02:58;10.07;;;4.75;;
29712;SDS011;16623;53.632;10.016;2023-03-12T09:05:24;9.65;;;4.28;;
29712;SDS011;16623;53.632;10.016;2023-03-12T09:07:52;8.30;;;3.92;;
29712;SDS011;16623;53.632;10.016;2023-03-12T09:10:17;7.53;;;4.22;;
29712;SDS011;16623;53.632;10.016;2023-03-12T09:12:43;13.35;;;5.00;;
29712;SDS011;16623;53.632;10.016;2023-03-12T09:15:09;11.80;;;4.50;;
29712;SDS011;16623;53.632;10.016;2023-03-12T09:17:34;8.65;;;4.97;;
29712;SDS011;16623;53.632;10.016;2023-03-12T09:20:00;10.13;;;4.50;;
29712;SDS011;16623;53.632;10.016;2023-03-12T09:22:32;13.05;;;5.10;;
29712;SDS011;16623;53.632;10.016;2023-03-12T09:24:57;9.52;;;5.22;;
29712;SDS011;16623;53.632;10.016;2023-03-12T09:27:23;18.42;;;5.20;;
29712;SDS011;16623;53.632;10.016;2023-03-12T09:29:48;12.43;;;4.53;;
29712;SDS011;16623;53.632;10.016;2023-03-12T09:32:15;5.85;;;4.20;;
29712;SDS011;16623;53.632;10.016;2023-03-12T09:34:41;10.40;;;4.68;;
29712;SDS011;16623;53.632;10.016;2023-03-12T09:37:06;7.40;;;5.18;;
29712;SDS011;16623;53.632;10.016;2023-03-12T09:39:33;10.02;;;4.22;;
29712;SDS011;16623;53.632;10.016;2023-03-12T09:41:58;12.80;;;5.00;;
29712;SDS011;16623;53.632;10.016;2023-03-12T09:47:02;11.02;;;5.30;;
29712;SDS011;16623;53.632;10.016;2023-03-12T09:49:36;17.73;;;4.47;;
29712;SDS011;16623;53.632;10.016;2023-03-12T09:52:14;10.52;;;4.90;;
29712;SDS011;16623;53.632;10.016;2023-03-12T09:55:07;10.80;;;4.88;;
29712;SDS011;16623;53.632;10.016;2023-03-12T09:57:40;8.55;;;4.25;;
29712;SDS011;16623;53.632;10.016;2023-03-12T10:00:18;10.23;;;4.28;;
29712;SDS011;16623;53.632;10.016;2023-03-12T10:05:21;10.90;;;5.45;;
29712;SDS011;16623;53.632;10.016;2023-03-12T10:07:59;8.27;;;4.65;;
29712;SDS011;16623;53.632;10.016;2023-03-12T10:13:49;9.20;;;4.22;;
29712;SDS011;16623;53.632;10.016;2023-03-12T10:16:36;17.73;;;4.55;;
29712;SDS011;16623;53.632;10.016;2023-03-12T10:27:32;8.73;;;3.20;;
29712;SDS011;16623;53.632;10.016;2023-03-12T10:30:01;7.40;;;3.60;;
29712;SDS011;16623;53.632;10.016;2023-03-12T10:32:40;6.68;;;3.58;;
29712;SDS011;16623;53.632;10.016;2023-03-12T10:35:20;9.85;;;3.63;;
29712;SDS011;16623;53.632;10.016;2023-03-12T10:37:50;14.20;;;3.95;;
29712;SDS011;16623;53.632;10.016;2023-03-12T10:40:21;6.85;;;3.05;;
29712;SDS011;16623;53.632;10.016;2023-03-12T10:42:48;14.10;;;4.65;;
29712;SDS011;16623;53.632;10.016;2023-03-12T10:48:02;10.63;;;3.58;;
29712;SDS011;16623;53.632;10.016;2023-03-12T10:50:34;7.57;;;3.53;;
29712;SDS011;16623;53.632;10.016;2023-03-12T10:56:11;7.47;;;2.92;;
29712;SDS011;16623;53.632;10.016;2023-03-12T10:58:39;7.25;;;3.30;;
29712;SDS011;16623;53.632;10.016;2023-03-12T11:01:23;6.72;;;3.45;;
29712;SDS011;16623;53.632;10.016;2023-03-12T11:06:43;9.32;;;3.53;;
29712;SDS011;16623;53.632;10.016;2023-03-12T11:09:31;9.48;;;4.20;;
29712;SDS011;16623;53.632;10.016;2023-03-12T11:11:57;7.82;;;3.83;;
29712;SDS011;16623;53.632;10.016;2023-03-12T11:14:24;11.55;;;4.10;;
29712;SDS011;16623;53.632;10.016;2023-03-12T11:16:51;12.68;;;3.25;;
29712;SDS011;16623;53.632;10.016;2023-03-12T11:19:26;5.00;;;3.45;;
29712;SDS011;16623;53.632;10.016;2023-03-12T11:21:58;10.88;;;4.38;;
29712;SDS011;16623;53.632;10.016;2023-03-12T11:24:25;9.10;;;4.05;;
29712;SDS011;16623;53.632;10.016;2023-03-12T11:29:42;11.10;;;3.72;;
29712;SDS011;16623;53.632;10.016;2023-03-12T11:32:32;10.23;;;4.15;;
29712;SDS011;16623;53.632;10.016;2023-03-12T11:35:01;6.30;;;3.70;;
29712;SDS011;16623;53.632;10.016;2023-03-12T11:40:17;11.30;;;4.60;;
29712;SDS011;16623;53.632;10.016;2023-03-12T11:45:46;9.18;;;4.30;;
29712;SDS011;16623;53.632;10.016;2023-03-12T11:48:35;5.60;;;2.83;;
29712;SDS011;16623;53.632;10.016;2023-03-12T11:57:06;6.10;;;3.65;;
29712;SDS011;16623;53.632;10.016;2023-03-12T11:59:40;10.60;;;4.03;;
29712;SDS011;16623;53.632;10.016;2023-03-12T12:02:23;5.70;;;3.17;;
29712;SDS011;16623;53.632;10.016;2023-03-12T12:10:53;11.55;;;3.47;;
29712;SDS011;16623;53.632;10.016;2023-03-12T12:16:18;9.77;;;4.30;;
29712;SDS011;16623;53.632;10.016;2023-03-12T12:19:12;12.23;;;3.40;;
29712;SDS011;16623;53.632;10.016;2023-03-12T12:21:51;5.47;;;3.30;;
29712;SDS011;16623;53.632;10.016;2023-03-12T12:24:33;7.97;;;2.95;;
29712;SDS011;16623;53.632;10.016;2023-03-12T12:27:28;10.13;;;3.10;;
29712;SDS011;16623;53.632;10.016;2023-03-12T12:32:55;12.48;;;3.22;;
29712;SDS011;16623;53.632;10.016;2023-03-12T12:35:31;6.05;;;3.13;;
29712;SDS011;16623;53.632;10.016;2023-03-12T12:38:13;8.40;;;3.58;;
29712;SDS011;16623;53.632;10.016;2023-03-12T12:41:10;7.13;;;4.15;;
29712;SDS011;16623;53.632;10.016;2023-03-12T12:43:43;10.13;;;2.42;;
29712;SDS011;16623;53.632;10.016;2023-03-12T12:46:16;9.20;;;2.85;;
29712;SDS011;16623;53.632;10.016;2023-03-12T12:48:51;11.02;;;2.33;;
29712;SDS011;16623;53.632;10.016;2023-03-12T12:51:27;2.70;;;1.65;;
29712;SDS011;16623;53.632;10.016;2023-03-12T12:54:04;10.80;;;2.58;;
29712;SDS011;16623;53.632;10.016;2023-03-12T12:56:53;8.00;;;3.00;;
29712;SDS011;16623;53.632;10.016;2023-03-12T13:01:51;9.43;;;3.28;;
29712;SDS011;16623;53.632;10.016;2023-03-12T13:04:22;6.30;;;2.50;;
29712;SDS011;16623;53.632;10.016;2023-03-12T13:09:42;9.60;;;2.63;;
29712;SDS011;16623;53.632;10.016;2023-03-12T13:12:10;5.53;;;2.40;;
29712;SDS011;16623;53.632;10.016;2023-03-12T13:14:41;3.50;;;2.20;;
29712;SDS011;16623;53.632;10.016;2023-03-12T13:19:58;5.13;;;1.85;;
29712;SDS011;16623;53.632;10.016;2023-03-12T13:27:45;9.40;;;2.28;;
29712;SDS011;16623;53.632;10.016;2023-03-12T13:48:19;6.93;;;2.95;;
29712;SDS011;16623;53.632;10.016;2023-03-12T13:50:50;6.78;;;2.90;;
29712;SDS011;16623;53.632;10.016;2023-03-12T13:53:26;6.07;;;3.03;;
29712;SDS011;16623;53.632;10.016;2023-03-12T13:56:02;4.10;;;2.42;;
29712;SDS011;16623;53.632;10.016;2023-03-12T13:58:41;7.10;;;2.30;;
29712;SDS011;16623;53.632;10.016;2023-03-12T14:01:14;7.75;;;2.60;;
29712;SDS011;16623;53.632;10.016;2023-03-12T14:03:51;6.20;;;2.13;;
29712;SDS011;16623;53.632;10.016;2023-03-12T14:06:22;4.88;;;2.00;;
29712;SDS011;16623;53.632;10.016;2023-03-12T14:11:30;4.13;;;2.25;;
29712;SDS011;16623;53.632;10.016;2023-03-12T14:17:13;9.20;;;2.60;;
29712;SDS011;16623;53.632;10.016;2023-03-12T14:19:46;6.70;;;2.55;;
29712;SDS011;16623;53.632;10.016;2023-03-12T14:22:15;6.05;;;2.47;;
29712;SDS011;16623;53.632;10.016;2023-03-12T14:24:50;5.68;;;2.20;;
29712;SDS011;16623;53.632;10.016;2023-03-12T14:27:23;5.97;;;2.50;;
29712;SDS011;16623;53.632;10.016;2023-03-12T14:30:09;6.00;;;2.80;;
29712;SDS011;16623;53.632;10.016;2023-03-12T14:32:46;9.13;;;5.32;;
29712;SDS011;16623;53.632;10.016;2023-03-12T14:35:18;15.02;;;3.88;;
29712;SDS011;16623;53.632;10.016;2023-03-12T14:37:59;7.93;;;2.75;;
29712;SDS011;16623;53.632;10.016;2023-03-12T14:45:58;5.43;;;3.50;;
29712;SDS011;16623;53.632;10.016;2023-03-12T14:48:29;7.60;;;3.10;;
29712;SDS011;16623;53.632;10.016;2023-03-12T14:50:57;3.78;;;2.67;;
29712;SDS011;16623;53.632;10.016;2023-03-12T14:53:26;7.03;;;2.85;;
29712;SDS011;16623;53.632;10.016;2023-03-12T14:56:00;12.82;;;4.63;;
29712;SDS011;16623;53.632;10.016;2023-03-12T14:58:32;7.53;;;3.28;;
29712;SDS011;16623;53.632;10.016;2023-03-12T15:01:02;6.55;;;3.38;;
29712;SDS011;16623;53.632;10.016;2023-03-12T15:03:29;8.60;;;3.95;;
29712;SDS011;16623;53.632;10.016;2023-03-12T15:06:19;6.70;;;3.53;;
29712;SDS011;16623;53.632;10.016;2023-03-12T15:08:54;5.30;;;3.22;;
29712;SDS011;16623;53.632;10.016;2023-03-12T15:11:24;5.85;;;3.03;;
29712;SDS011;16623;53.632;10.016;2023-03-12T15:13:54;5.38;;;2.58;;
29712;SDS011;16623;53.632;10.016;2023-03-12T15:16:27;7.40;;;3.67;;
29712;SDS011;16623;53.632;10.016;2023-03-12T15:18:52;7.25;;;3.85;;
29712;SDS011;16623;53.632;10.016;2023-03-12T15:21:20;6.93;;;3.60;;
29712;SDS011;16623;53.632;10.016;2023-03-12T15:23:46;10.65;;;5.85;;
29712;SDS011;16623;53.632;10.016;2023-03-12T15:26:25;8.13;;;3.72;;
29712;SDS011;16623;53.632;10.016;2023-03-12T15:28:55;7.55;;;3.65;;
29712;SDS011;16623;53.632;10.016;2023-03-12T15:31:39;6.90;;;3.67;;
29712;SDS011;16623;53.632;10.016;2023-03-12T15:34:13;7.13;;;3.45;;
29712;SDS011;16623;53.632;10.016;2023-03-12T15:36:50;7.25;;;3.88;;
29712;SDS011;16623;53.632;10.016;2023-03-12T15:39:25;7.07;;;4.30;;
29712;SDS011;16623;53.632;10.016;2023-03-12T15:41:54;3.95;;;3.55;;
29712;SDS011;16623;53.632;10.016;2023-03-12T15:44:27;20.73;;;5.85;;
29712;SDS011;16623;53.632;10.016;2023-03-12T15:47:02;13.25;;;6.03;;
29712;SDS011;16623;53.632;10.016;2023-03-12T15:49:34;9.15;;;4.63;;
29712;SDS011;16623;53.632;10.016;2023-03-12T15:54:43;6.95;;;4.63;;
29712;SDS011;16623;53.632;10.016;2023-03-12T15:57:47;6.07;;;3.50;;
29712;SDS011;16623;53.632;10.016;2023-03-12T16:00:21;6.18;;;4.43;;
29712;SDS011;16623;53.632;10.016;2023-03-12T16:05:19;8.05;;;4.47;;
29712;SDS011;16623;53.632;10.016;2023-03-12T16:07:46;5.72;;;4.28;;
29712;SDS011;16623;53.632;10.016;2023-03-12T16:10:13;7.13;;;5.97;;
29712;SDS011;16623;53.632;10.016;2023-03-12T16:12:40;9.07;;;4.15;;
29712;SDS011;16623;53.632;10.016;2023-03-12T16:15:15;7.55;;;5.13;;
29712;SDS011;16623;53.632;10.016;2023-03-12T16:17:43;7.45;;;4.88;;
29712;SDS011;16623;53.632;10.016;2023-03-12T16:20:10;5.65;;;4.47;;
29712;SDS011;16623;53.632;10.016;2023-03-12T16:22:38;6.75;;;4.82;;
29712;SDS011;16623;53.632;10.016;2023-03-12T16:25:03;5.45;;;4.45;;
29712;SDS011;16623;53.632;10.016;2023-03-12T16:27:29;11.30;;;5.63;;
29712;SDS011;16623;53.632;10.016;2023-03-12T16:29:56;9.18;;;6.78;;